Woodridge, Canada
Current Conditions -  °F | °C
As of 5:34 PM on Friday 19 Dec 2014 (Local Time) from KROX Reporting Station
Haze Haze  
Wind Chill: 18°   Ceiling: 700
Heat Index: 27°   Visibility: 2mi
Dew Point: 21°   Wind: 8mph
Humidity: 80%   Direction: 140°SE
Pressure: 30.06"   Gusts: NA
Location:  49.28°N, 96.15°W
Report Text: KROX 192334Z AUTO 14007KT 2SM BR OVC007 M03/M06 A3006 RMK AO2
Loading
Personal Weather Stations






























Interactive Weather Map New forecast layout! Learn more

10-Day Weather Forecast

Advertisements
Track Severe Weather on mobile